Time;durP1;ratioP1;P1;durP2;ratioP2;P2;SDS_P1;SDS_P2;PMS_P1;PMS_P2;Temp;Humidity;BMP_temperature;BMP_pressure;BME280_temperature;BME280_humidity;BME280_pressure;Samples;Min_cycle;Max_cycle;Signal;HPM_P1;HPM_P2
2022/10/26 00:00:06;;;;;;;11.00;4.00;;;;;;;;;;106398;1311;22066;-87
2022/10/26 00:02:58;;;;;;;9.00;4.00;;;;;;;;;;106536;1312;22084;-87
2022/10/26 00:05:24;;;;;;;10.50;4.10;;;;;;;;;;106367;1312;22106;-87
2022/10/26 00:07:51;;;;;;;12.10;4.70;;;;;;;;;;106545;1303;22041;-88
2022/10/26 00:10:20;;;;;;;9.60;3.50;;;;;;;;;;106427;1313;22070;-86
2022/10/26 00:12:48;;;;;;;10.40;4.10;;;;;;;;;;106560;1305;22089;-86
2022/10/26 00:15:15;;;;;;;13.60;5.10;;;;;;;;;;106725;1304;22651;-87
2022/10/26 00:17:42;;;;;;;10.90;4.50;;;;;;;;;;106804;1309;22116;-88
2022/10/26 00:20:09;;;;;;;11.70;4.60;;;;;;;;;;107020;1283;21957;-87
2022/10/26 00:22:36;;;;;;;15.00;6.00;;;;;;;;;;106665;1309;22058;-89
2022/10/26 00:25:03;;;;;;;14.30;6.20;;;;;;;;;;106673;1309;22072;-88
2022/10/26 00:27:30;;;;;;;12.60;5.90;;;;;;;;;;106660;1307;22036;-88
2022/10/26 00:29:56;;;;;;;13.10;6.00;;;;;;;;;;106649;1303;22111;-87
2022/10/26 00:32:23;;;;;;;12.50;6.00;;;;;;;;;;106798;1308;22692;-87
2022/10/26 00:34:50;;;;;;;11.10;5.50;;;;;;;;;;106736;1310;22143;-87
2022/10/26 00:37:17;;;;;;;10.10;5.00;;;;;;;;;;106806;1309;22641;-87
2022/10/26 00:39:43;;;;;;;9.80;4.70;;;;;;;;;;106690;1295;22711;-87
2022/10/26 00:42:13;;;;;;;9.90;4.70;;;;;;;;;;106947;1286;22043;-87
2022/10/26 00:45:00;;;;;;;9.80;4.20;;;;;;;;;;106675;1309;23036;-87
2022/10/26 00:47:30;;;;;;;11.50;4.30;;;;;;;;;;106780;1302;22093;-87
2022/10/26 00:49:58;;;;;;;10.40;4.50;;;;;;;;;;106751;1308;22153;-86
2022/10/26 00:52:26;;;;;;;11.20;4.10;;;;;;;;;;106791;1304;22100;-87
2022/10/26 00:54:53;;;;;;;13.10;4.70;;;;;;;;;;106659;1310;21694;-87
2022/10/26 00:57:19;;;;;;;10.70;3.90;;;;;;;;;;106724;1304;22051;-87
2022/10/26 00:59:46;;;;;;;11.10;4.00;;;;;;;;;;106969;1302;23065;-88
2022/10/26 01:02:13;;;;;;;10.50;4.30;;;;;;;;;;106645;1309;22059;-88
2022/10/26 01:04:40;;;;;;;9.80;4.20;;;;;;;;;;106537;1309;22752;-87
2022/10/26 01:07:07;;;;;;;10.20;4.30;;;;;;;;;;106657;1309;22109;-88
2022/10/26 01:09:35;;;;;;;12.90;5.10;;;;;;;;;;106950;1296;22646;-88
2022/10/26 01:12:03;;;;;;;9.90;4.80;;;;;;;;;;106696;1287;22771;-88
2022/10/26 01:14:31;;;;;;;12.10;4.60;;;;;;;;;;106718;1309;22057;-88
2022/10/26 01:17:20;;;;;;;10.90;4.50;;;;;;;;;;106712;1309;22197;-87
2022/10/26 01:20:17;;;;;;;10.60;4.70;;;;;;;;;;106754;1308;22838;-87
2022/10/26 01:22:52;;;;;;;14.60;5.40;;;;;;;;;;106612;1310;22082;-87
2022/10/26 01:25:38;;;;;;;13.30;5.40;;;;;;;;;;106725;1293;22204;-86
2022/10/26 01:28:28;;;;;;;12.50;5.70;;;;;;;;;;106967;1298;22759;-88
2022/10/26 01:30:57;;;;;;;13.70;5.10;;;;;;;;;;106679;1309;22136;-88
2022/10/26 01:33:43;;;;;;;14.00;4.70;;;;;;;;;;106746;1310;22029;-87
2022/10/26 01:36:10;;;;;;;13.10;4.90;;;;;;;;;;106593;1310;22118;-88
2022/10/26 01:38:43;;;;;;;9.10;4.00;;;;;;;;;;106752;1310;21981;-85
2022/10/26 01:41:20;;;;;;;12.80;4.60;;;;;;;;;;106725;1310;22096;-87
2022/10/26 01:43:52;;;;;;;11.90;5.10;;;;;;;;;;106702;1310;21972;-86
2022/10/26 01:46:21;;;;;;;10.70;4.20;;;;;;;;;;106714;1310;22815;-87
2022/10/26 01:48:49;;;;;;;10.20;3.90;;;;;;;;;;106694;1310;22061;-87
2022/10/26 01:51:17;;;;;;;10.30;3.70;;;;;;;;;;106623;1310;22793;-87
2022/10/26 01:53:45;;;;;;;11.10;3.30;;;;;;;;;;106688;1310;22759;-87
2022/10/26 01:56:18;;;;;;;12.50;3.80;;;;;;;;;;106703;1310;22051;-87
2022/10/26 01:58:48;;;;;;;10.20;3.80;;;;;;;;;;106650;1310;22116;-88
2022/10/26 02:01:15;;;;;;;10.10;3.60;;;;;;;;;;106741;1308;22491;-86
2022/10/26 02:03:51;;;;;;;8.40;3.20;;;;;;;;;;106611;1310;22074;-88
2022/10/26 02:06:22;;;;;;;10.20;3.90;;;;;;;;;;106646;1305;21975;-87
2022/10/26 02:09:13;;;;;;;8.30;3.50;;;;;;;;;;106617;1310;22126;-86
2022/10/26 02:11:45;;;;;;;8.80;3.20;;;;;;;;;;106695;1310;22767;-86
2022/10/26 02:14:18;;;;;;;9.00;3.30;;;;;;;;;;106624;1313;22742;-87
2022/10/26 02:16:57;;;;;;;8.10;3.70;;;;;;;;;;106543;1313;22155;-85
2022/10/26 02:19:52;;;;;;;10.40;3.80;;;;;;;;;;106629;1313;22774;-86
2022/10/26 02:22:52;;;;;;;10.00;3.90;;;;;;;;;;106687;1310;22047;-87
2022/10/26 02:25:27;;;;;;;10.20;3.70;;;;;;;;;;106676;1310;22064;-87
2022/10/26 02:28:00;;;;;;;10.40;4.40;;;;;;;;;;106661;1310;21972;-85
2022/10/26 02:30:29;;;;;;;12.10;4.60;;;;;;;;;;106680;1310;21971;-87
2022/10/26 02:32:58;;;;;;;8.70;4.20;;;;;;;;;;106670;1310;22206;-85
2022/10/26 02:35:31;;;;;;;9.80;4.20;;;;;;;;;;106608;1310;21928;-87
2022/10/26 02:38:02;;;;;;;7.70;3.80;;;;;;;;;;106606;1310;22052;-86
2022/10/26 02:40:33;;;;;;;8.70;3.70;;;;;;;;;;106639;1310;22843;-86
2022/10/26 02:43:05;;;;;;;10.00;4.40;;;;;;;;;;106582;1310;22074;-86
2022/10/26 02:45:36;;;;;;;11.20;4.30;;;;;;;;;;106673;1311;22693;-86
2022/10/26 02:48:05;;;;;;;11.50;4.70;;;;;;;;;;106658;1310;22059;-86
2022/10/26 02:50:52;;;;;;;11.40;5.10;;;;;;;;;;106658;1310;21996;-85
2022/10/26 02:53:25;;;;;;;14.10;4.40;;;;;;;;;;106903;1302;22064;-86
2022/10/26 02:55:54;;;;;;;9.90;4.40;;;;;;;;;;106608;1313;22069;-86
2022/10/26 02:58:25;;;;;;;13.80;4.70;;;;;;;;;;106673;1302;22102;-85
2022/10/26 03:00:56;;;;;;;8.50;3.90;;;;;;;;;;106612;1313;22079;-86
2022/10/26 03:03:25;;;;;;;11.70;5.00;;;;;;;;;;106623;1310;21642;-87
2022/10/26 03:05:54;;;;;;;10.40;4.60;;;;;;;;;;106706;1310;22114;-81
2022/10/26 03:14:51;;;;;;;11.00;6.00;;;;;;;;;;100497;1340;544564;-89
2022/10/26 03:17:17;;;;;;;11.10;5.80;;;;;;;;;;102659;1317;24337;-88
2022/10/26 03:19:44;;;;;;;12.20;6.20;;;;;;;;;;102522;1319;24600;-90
2022/10/26 03:22:10;;;;;;;9.60;4.80;;;;;;;;;;102605;1317;22449;-88
2022/10/26 03:24:37;;;;;;;12.10;5.10;;;;;;;;;;103521;1305;25582;-83
2022/10/26 03:27:03;;;;;;;11.40;5.20;;;;;;;;;;103453;1307;23892;-90
2022/10/26 03:29:30;;;;;;;12.30;5.60;;;;;;;;;;103588;1304;162523;-89
2022/10/26 03:31:56;;;;;;;16.40;6.20;;;;;;;;;;103696;1304;22493;-88
2022/10/26 03:34:23;;;;;;;15.10;5.90;;;;;;;;;;103611;1307;22546;-87
2022/10/26 03:36:50;;;;;;;11.90;6.10;;;;;;;;;;103599;1291;25229;-88
2022/10/26 03:39:16;;;;;;;12.30;5.90;;;;;;;;;;103601;1303;22606;-88
2022/10/26 03:41:43;;;;;;;11.70;5.20;;;;;;;;;;103735;1303;24220;-92
2022/10/26 03:44:09;;;;;;;9.70;4.90;;;;;;;;;;103633;1306;24845;-88
2022/10/26 03:46:36;;;;;;;10.90;5.40;;;;;;;;;;103647;1304;22462;-88
2022/10/26 03:49:02;;;;;;;9.50;4.60;;;;;;;;;;103650;1304;23225;-87
2022/10/26 03:51:29;;;;;;;10.20;5.20;;;;;;;;;;103522;1308;25208;-91
2022/10/26 03:53:56;;;;;;;13.70;5.20;;;;;;;;;;103661;1304;25279;-88
2022/10/26 03:56:22;;;;;;;13.20;5.80;;;;;;;;;;103516;1303;22466;-89
2022/10/26 03:58:49;;;;;;;11.90;5.60;;;;;;;;;;103636;1309;22475;-89
2022/10/26 04:01:15;;;;;;;11.20;5.10;;;;;;;;;;103685;1295;26450;-88
2022/10/26 04:03:42;;;;;;;12.10;5.70;;;;;;;;;;103908;1303;22483;-89
2022/10/26 04:06:09;;;;;;;12.30;4.80;;;;;;;;;;103646;1306;22466;-91
2022/10/26 04:08:35;;;;;;;11.80;4.80;;;;;;;;;;103568;1307;25505;-88
2022/10/26 04:11:02;;;;;;;13.00;6.10;;;;;;;;;;103682;1304;21670;-90
2022/10/26 04:13:29;;;;;;;12.10;6.20;;;;;;;;;;103530;1309;24248;-89
2022/10/26 04:15:55;;;;;;;15.20;6.80;;;;;;;;;;103680;1306;25329;-88
2022/10/26 04:18:22;;;;;;;12.90;6.60;;;;;;;;;;103805;1306;22484;-89
2022/10/26 04:20:48;;;;;;;13.90;6.80;;;;;;;;;;103541;1306;24476;-91
2022/10/26 04:23:16;;;;;;;12.40;6.00;;;;;;;;;;103639;1306;24433;-89
2022/10/26 04:25:42;;;;;;;11.70;5.60;;;;;;;;;;103572;1307;22465;-94
2022/10/26 04:28:10;;;;;;;11.70;5.70;;;;;;;;;;103360;1307;22461;-89
2022/10/26 04:30:36;;;;;;;12.10;5.50;;;;;;;;;;103577;1297;22460;-91
2022/10/26 04:33:04;;;;;;;10.60;5.00;;;;;;;;;;103619;1306;21944;-89
2022/10/26 04:35:31;;;;;;;11.70;5.50;;;;;;;;;;103664;1304;25287;-91
2022/10/26 04:38:02;;;;;;;14.70;5.70;;;;;;;;;;103691;1290;22474;-89
2022/10/26 04:40:29;;;;;;;11.00;5.50;;;;;;;;;;103585;1306;25645;-88
2022/10/26 04:42:56;;;;;;;10.90;5.40;;;;;;;;;;103586;1306;22481;-88
2022/10/26 04:45:23;;;;;;;12.70;5.90;;;;;;;;;;103722;1305;24383;-86
2022/10/26 04:47:59;;;;;;;12.30;5.30;;;;;;;;;;103643;1304;22463;-89
2022/10/26 04:50:26;;;;;;;12.60;5.70;;;;;;;;;;103869;1304;22472;-90
2022/10/26 04:52:54;;;;;;;10.50;4.80;;;;;;;;;;103660;1304;22457;-95
2022/10/26 04:55:21;;;;;;;13.40;5.80;;;;;;;;;;103553;1306;22454;-88
2022/10/26 04:57:47;;;;;;;11.90;6.10;;;;;;;;;;103664;1305;25435;-88
2022/10/26 05:00:14;;;;;;;12.00;6.20;;;;;;;;;;103611;1305;25886;-92
2022/10/26 05:02:41;;;;;;;14.20;6.90;;;;;;;;;;103416;1291;22477;-90
2022/10/26 05:05:08;;;;;;;17.30;8.10;;;;;;;;;;103525;1297;22472;-88
2022/10/26 05:07:35;;;;;;;16.10;6.10;;;;;;;;;;103664;1304;22472;-88
2022/10/26 05:10:01;;;;;;;12.80;6.80;;;;;;;;;;103673;1304;25311;-89
2022/10/26 05:12:28;;;;;;;12.80;6.50;;;;;;;;;;103943;1304;22585;-89
2022/10/26 05:14:57;;;;;;;12.90;6.40;;;;;;;;;;103771;1293;23120;-87
2022/10/26 05:17:25;;;;;;;13.10;6.40;;;;;;;;;;103812;1284;22476;-85
2022/10/26 05:19:54;;;;;;;11.70;6.10;;;;;;;;;;103354;1301;24503;-88
2022/10/26 05:22:21;;;;;;;12.30;5.80;;;;;;;;;;103452;1310;25397;-90
2022/10/26 05:24:48;;;;;;;13.00;6.30;;;;;;;;;;103749;1307;21740;-85
2022/10/26 05:27:15;;;;;;;15.00;6.80;;;;;;;;;;103676;1282;25505;-87
2022/10/26 05:29:41;;;;;;;14.60;6.80;;;;;;;;;;103638;1307;25307;-92
2022/10/26 05:32:08;;;;;;;13.20;6.20;;;;;;;;;;103672;1307;22458;-88
2022/10/26 05:34:34;;;;;;;13.60;5.70;;;;;;;;;;103604;1303;25401;-92
2022/10/26 05:37:01;;;;;;;11.20;5.60;;;;;;;;;;103590;1310;22585;-92
2022/10/26 05:39:28;;;;;;;14.20;6.30;;;;;;;;;;103633;1310;22469;-88
2022/10/26 05:41:54;;;;;;;14.50;6.20;;;;;;;;;;103582;1310;22662;-91
2022/10/26 05:44:21;;;;;;;15.00;6.40;;;;;;;;;;103535;1310;22695;-88
2022/10/26 05:46:47;;;;;;;13.10;6.40;;;;;;;;;;103708;1308;25343;-89
2022/10/26 05:49:14;;;;;;;17.60;7.00;;;;;;;;;;103730;1310;25331;-90
2022/10/26 05:51:41;;;;;;;16.60;7.50;;;;;;;;;;103707;1295;24380;-87
2022/10/26 05:54:08;;;;;;;21.10;8.00;;;;;;;;;;103944;1307;25026;-88
2022/10/26 05:56:36;;;;;;;19.80;6.80;;;;;;;;;;103667;1308;22470;-86
2022/10/26 05:59:04;;;;;;;14.50;7.00;;;;;;;;;;103557;1305;22471;-89
2022/10/26 06:01:30;;;;;;;15.70;6.90;;;;;;;;;;103861;1310;25325;-87
2022/10/26 06:04:09;;;;;;;14.40;6.30;;;;;;;;;;103982;1303;25330;-87
2022/10/26 06:06:38;;;;;;;14.60;6.90;;;;;;;;;;103857;1308;24069;-88
2022/10/26 06:09:05;;;;;;;16.60;7.70;;;;;;;;;;103539;1307;24792;-88
2022/10/26 06:11:32;;;;;;;18.90;8.70;;;;;;;;;;103621;1307;22479;-88
2022/10/26 06:14:00;;;;;;;22.20;9.00;;;;;;;;;;103542;1298;22458;-88
2022/10/26 06:16:39;;;;;;;19.30;8.20;;;;;;;;;;103509;1298;23881;-92
2022/10/26 06:19:18;;;;;;;18.10;8.00;;;;;;;;;;103749;1298;22495;-87
2022/10/26 06:22:11;;;;;;;17.50;6.90;;;;;;;;;;103620;1307;22737;-88
2022/10/26 06:24:40;;;;;;;18.40;6.90;;;;;;;;;;103515;1297;22585;-83
2022/10/26 06:27:16;;;;;;;17.40;6.90;;;;;;;;;;103587;1305;22483;-88
2022/10/26 06:29:48;;;;;;;21.60;8.00;;;;;;;;;;103469;1307;22583;-89
2022/10/26 06:32:16;;;;;;;19.20;7.90;;;;;;;;;;103587;1307;22647;-90
2022/10/26 06:34:45;;;;;;;16.90;8.50;;;;;;;;;;103479;1307;25427;-88
2022/10/26 06:37:12;;;;;;;20.10;9.60;;;;;;;;;;103374;1309;24154;-90
2022/10/26 06:39:43;;;;;;;20.00;9.40;;;;;;;;;;103582;1307;22506;-89
2022/10/26 06:42:10;;;;;;;22.00;8.90;;;;;;;;;;103620;1307;22561;-88
2022/10/26 06:44:37;;;;;;;16.80;8.00;;;;;;;;;;103617;1307;22735;-92
2022/10/26 06:47:03;;;;;;;22.90;8.60;;;;;;;;;;103640;1307;24223;-90
2022/10/26 06:49:33;;;;;;;19.20;8.50;;;;;;;;;;103800;1304;22481;-90
2022/10/26 06:52:06;;;;;;;21.10;9.30;;;;;;;;;;103654;1307;22461;-90
2022/10/26 06:54:33;;;;;;;23.40;10.30;;;;;;;;;;103701;1304;22474;-92
2022/10/26 06:56:59;;;;;;;22.00;10.80;;;;;;;;;;103845;1304;22467;-92
2022/10/26 06:59:35;;;;;;;21.10;10.20;;;;;;;;;;103506;1307;24311;-92
2022/10/26 07:02:02;;;;;;;21.40;11.10;;;;;;;;;;103605;1307;24306;-91
2022/10/26 07:04:28;;;;;;;22.10;11.20;;;;;;;;;;103625;1307;24269;-88
2022/10/26 07:06:56;;;;;;;17.30;9.30;;;;;;;;;;103651;1306;22967;-89
2022/10/26 07:09:22;;;;;;;20.20;9.70;;;;;;;;;;103640;1301;22465;-89
2022/10/26 07:11:49;;;;;;;19.20;9.60;;;;;;;;;;103782;1303;22927;-89
2022/10/26 07:14:15;;;;;;;19.70;9.50;;;;;;;;;;103628;1285;25315;-87
2022/10/26 07:16:42;;;;;;;17.90;10.00;;;;;;;;;;103612;1290;22495;-88
2022/10/26 07:19:08;;;;;;;18.70;9.80;;;;;;;;;;103778;1304;22462;-86
2022/10/26 07:21:35;;;;;;;18.50;9.40;;;;;;;;;;103590;1305;22470;-88
2022/10/26 07:24:01;;;;;;;15.70;8.70;;;;;;;;;;103783;1304;22469;-87
2022/10/26 07:26:28;;;;;;;18.60;9.40;;;;;;;;;;103620;1302;22499;-87
2022/10/26 07:28:55;;;;;;;20.40;9.80;;;;;;;;;;103591;1304;22438;-86
2022/10/26 07:31:21;;;;;;;17.00;8.80;;;;;;;;;;103492;1307;25271;-87
2022/10/26 07:33:48;;;;;;;18.70;9.10;;;;;;;;;;103412;1307;25273;-94
2022/10/26 07:36:15;;;;;;;21.10;9.40;;;;;;;;;;103716;1306;22480;-85
2022/10/26 07:38:41;;;;;;;18.80;9.40;;;;;;;;;;103628;1306;22471;-86
2022/10/26 07:41:08;;;;;;;18.30;9.10;;;;;;;;;;106932;1306;22074;-83
2022/10/26 07:43:35;;;;;;;15.80;8.30;;;;;;;;;;106957;1306;22456;-85
2022/10/26 07:46:01;;;;;;;14.30;7.40;;;;;;;;;;107120;1298;22763;-85
2022/10/26 07:48:28;;;;;;;15.80;7.70;;;;;;;;;;106967;1306;22211;-86
2022/10/26 07:50:54;;;;;;;13.90;7.90;;;;;;;;;;107287;1292;22313;-84
2022/10/26 07:53:21;;;;;;;17.20;7.90;;;;;;;;;;106950;1304;22101;-84
2022/10/26 07:55:54;;;;;;;16.80;7.50;;;;;;;;;;107301;1288;22105;-85
2022/10/26 07:58:23;;;;;;;16.40;8.10;;;;;;;;;;106936;1298;22120;-85
2022/10/26 08:00:49;;;;;;;14.40;7.50;;;;;;;;;;106897;1306;22191;-86
2022/10/26 08:03:17;;;;;;;13.90;6.90;;;;;;;;;;106976;1306;22083;-84
2022/10/26 08:05:54;;;;;;;14.90;8.00;;;;;;;;;;106974;1306;22138;-86
2022/10/26 08:08:21;;;;;;;18.40;8.90;;;;;;;;;;106961;1297;22062;-86
2022/10/26 08:10:48;;;;;;;13.10;6.90;;;;;;;;;;107254;1291;22694;-85
2022/10/26 08:13:14;;;;;;;15.60;7.20;;;;;;;;;;106981;1304;22048;-85
2022/10/26 08:15:41;;;;;;;12.50;7.30;;;;;;;;;;107320;1281;22074;-85
2022/10/26 08:18:07;;;;;;;13.30;7.10;;;;;;;;;;106912;1297;22066;-85
2022/10/26 08:20:34;;;;;;;13.20;6.80;;;;;;;;;;107212;1290;22724;-85
2022/10/26 08:23:02;;;;;;;13.50;7.30;;;;;;;;;;106949;1304;22714;-85
2022/10/26 08:25:29;;;;;;;12.20;6.60;;;;;;;;;;107092;1304;22152;-85
2022/10/26 08:27:59;;;;;;;12.80;7.00;;;;;;;;;;107127;1297;22831;-85
2022/10/26 08:30:26;;;;;;;14.10;7.10;;;;;;;;;;107238;1292;22075;-85
2022/10/26 08:32:59;;;;;;;11.50;6.40;;;;;;;;;;107066;1304;22071;-86
2022/10/26 08:35:26;;;;;;;13.20;6.10;;;;;;;;;;106933;1306;22100;-85
2022/10/26 08:37:53;;;;;;;12.40;6.40;;;;;;;;;;107093;1304;22070;-86
2022/10/26 08:40:29;;;;;;;13.60;6.60;;;;;;;;;;106926;1301;22933;-86
2022/10/26 08:42:59;;;;;;;11.40;6.10;;;;;;;;;;106933;1304;22097;-85
2022/10/26 08:45:28;;;;;;;13.40;6.50;;;;;;;;;;107263;1288;22129;-86
2022/10/26 08:47:57;;;;;;;12.20;6.50;;;;;;;;;;107339;1296;22037;-87
2022/10/26 08:50:23;;;;;;;11.60;6.00;;;;;;;;;;107104;1304;22353;-85
2022/10/26 08:53:02;;;;;;;13.30;6.80;;;;;;;;;;106932;1306;22070;-86
2022/10/26 08:55:37;;;;;;;13.80;7.10;;;;;;;;;;106818;1306;22173;-85
2022/10/26 08:58:07;;;;;;;14.20;6.90;;;;;;;;;;106790;1306;22071;-85
2022/10/26 09:00:34;;;;;;;15.60;7.00;;;;;;;;;;107306;1298;22003;-85
2022/10/26 09:03:08;;;;;;;12.60;6.10;;;;;;;;;;106791;1304;22136;-85
2022/10/26 09:05:40;;;;;;;14.20;6.10;;;;;;;;;;107127;1304;22051;-85
2022/10/26 09:08:16;;;;;;;14.30;6.10;;;;;;;;;;107117;1304;22074;-87
2022/10/26 09:11:01;;;;;;;11.90;5.30;;;;;;;;;;107075;1307;22971;-85
2022/10/26 09:13:48;;;;;;;16.40;5.60;;;;;;;;;;106982;1301;22064;-85
2022/10/26 09:16:21;;;;;;;11.50;5.10;;;;;;;;;;106774;1300;22112;-85
2022/10/26 09:18:53;;;;;;;12.20;6.10;;;;;;;;;;106992;1306;22767;-85
2022/10/26 09:21:23;;;;;;;10.60;5.20;;;;;;;;;;106968;1305;21999;-83
2022/10/26 09:23:59;;;;;;;13.30;5.80;;;;;;;;;;106900;1302;22593;-85
2022/10/26 09:26:34;;;;;;;13.20;6.10;;;;;;;;;;106995;1305;22010;-83
2022/10/26 09:29:03;;;;;;;11.90;5.60;;;;;;;;;;107311;1285;22699;-84
2022/10/26 09:31:34;;;;;;;11.20;6.00;;;;;;;;;;106761;1306;22942;-85
2022/10/26 09:34:01;;;;;;;12.60;6.10;;;;;;;;;;106930;1298;22048;-84
2022/10/26 09:36:27;;;;;;;12.60;5.80;;;;;;;;;;106934;1306;22732;-85
2022/10/26 09:39:02;;;;;;;14.10;5.70;;;;;;;;;;107001;1306;22092;-85
2022/10/26 09:41:42;;;;;;;14.50;5.80;;;;;;;;;;106923;1306;22067;-83
2022/10/26 09:44:08;;;;;;;14.00;6.10;;;;;;;;;;106809;1307;22067;-85
2022/10/26 09:46:48;;;;;;;12.30;5.10;;;;;;;;;;107118;1306;22085;-85
2022/10/26 09:49:16;;;;;;;12.70;5.00;;;;;;;;;;107310;1285;22738;-85
2022/10/26 09:51:43;;;;;;;13.20;4.80;;;;;;;;;;106937;1307;22046;-84
2022/10/26 09:54:15;;;;;;;11.50;4.70;;;;;;;;;;107211;1299;22095;-85
2022/10/26 09:56:43;;;;;;;9.60;4.40;;;;;;;;;;107219;1291;22161;-85
2022/10/26 09:59:10;;;;;;;11.40;4.40;;;;;;;;;;107219;1297;22128;-85
2022/10/26 10:01:37;;;;;;;15.40;4.20;;;;;;;;;;107317;1284;22028;-85
2022/10/26 10:04:08;;;;;;;11.30;4.10;;;;;;;;;;107069;1306;22784;-85
2022/10/26 10:06:35;;;;;;;10.70;3.90;;;;;;;;;;106916;1302;22072;-86
2022/10/26 10:09:04;;;;;;;9.90;4.30;;;;;;;;;;107286;1297;22059;-85
2022/10/26 10:11:42;;;;;;;11.90;3.70;;;;;;;;;;107057;1305;22772;-84
2022/10/26 10:14:14;;;;;;;12.90;4.00;;;;;;;;;;106958;1306;22103;-85
2022/10/26 10:16:47;;;;;;;12.40;4.40;;;;;;;;;;107110;1299;22103;-84
2022/10/26 10:19:25;;;;;;;8.90;3.60;;;;;;;;;;106899;1306;21954;-85
2022/10/26 10:22:11;;;;;;;13.30;4.60;;;;;;;;;;106879;1306;22245;-85
2022/10/26 10:24:42;;;;;;;14.70;4.20;;;;;;;;;;106766;1307;22116;-83
2022/10/26 10:27:12;;;;;;;9.50;3.10;;;;;;;;;;106913;1306;22083;-85
2022/10/26 10:29:40;;;;;;;9.80;2.80;;;;;;;;;;107053;1307;22179;-85
2022/10/26 10:32:14;;;;;;;10.10;3.20;;;;;;;;;;106915;1301;22056;-85
2022/10/26 10:34:41;;;;;;;11.80;3.80;;;;;;;;;;106789;1306;22049;-84
2022/10/26 10:37:22;;;;;;;11.10;4.80;;;;;;;;;;107138;1299;22091;-84
2022/10/26 10:39:49;;;;;;;19.30;7.90;;;;;;;;;;107112;1299;22089;-86
2022/10/26 10:42:17;;;;;;;7.30;3.00;;;;;;;;;;106969;1300;22054;-84
2022/10/26 10:44:45;;;;;;;6.90;2.00;;;;;;;;;;107127;1296;22529;-86
2022/10/26 10:47:20;;;;;;;6.40;2.20;;;;;;;;;;107021;1307;22527;-86
2022/10/26 10:49:55;;;;;;;6.00;1.70;;;;;;;;;;107040;1305;22718;-85
2022/10/26 10:52:29;;;;;;;14.70;5.90;;;;;;;;;;106793;1306;22077;-85
2022/10/26 10:55:09;;;;;;;10.90;3.00;;;;;;;;;;106747;1306;22160;-85
2022/10/26 10:57:42;;;;;;;7.20;2.10;;;;;;;;;;106932;1306;22099;-85
2022/10/26 11:00:10;;;;;;;6.30;1.90;;;;;;;;;;107149;1299;22052;-86
2022/10/26 11:02:38;;;;;;;8.70;3.20;;;;;;;;;;106799;1306;22045;-83
2022/10/26 11:05:10;;;;;;;19.00;6.20;;;;;;;;;;106988;1305;22753;-86
2022/10/26 11:07:57;;;;;;;15.80;4.90;;;;;;;;;;106995;1307;22320;-85
2022/10/26 11:10:26;;;;;;;10.70;3.60;;;;;;;;;;106828;1306;22057;-85
2022/10/26 11:12:56;;;;;;;9.50;2.80;;;;;;;;;;106973;1307;22100;-85
2022/10/26 11:15:24;;;;;;;10.50;3.40;;;;;;;;;;106896;1307;22035;-85
2022/10/26 11:17:54;;;;;;;8.30;2.60;;;;;;;;;;106962;1305;22067;-86
2022/10/26 11:20:23;;;;;;;7.30;1.60;;;;;;;;;;106895;1307;22087;-86
2022/10/26 11:22:57;;;;;;;5.70;1.30;;;;;;;;;;106913;1300;23236;-86
2022/10/26 11:25:29;;;;;;;7.60;2.40;;;;;;;;;;106984;1306;22657;-87
2022/10/26 11:28:00;;;;;;;7.00;2.30;;;;;;;;;;106935;1305;22139;-87
2022/10/26 11:30:29;;;;;;;5.80;1.40;;;;;;;;;;107134;1294;22133;-86
2022/10/26 11:33:02;;;;;;;5.90;1.30;;;;;;;;;;106768;1307;22540;-87
2022/10/26 11:35:36;;;;;;;14.30;4.40;;;;;;;;;;107133;1292;22053;-87
2022/10/26 11:38:03;;;;;;;6.40;1.60;;;;;;;;;;106759;1307;22063;-86
2022/10/26 11:40:51;;;;;;;4.50;1.50;;;;;;;;;;106993;1299;22079;-85
2022/10/26 11:43:29;;;;;;;5.80;1.50;;;;;;;;;;107019;1307;22107;-85
2022/10/26 11:46:02;;;;;;;10.70;2.00;;;;;;;;;;106893;1307;22081;-87
2022/10/26 11:48:34;;;;;;;5.80;1.80;;;;;;;;;;106908;1307;22685;-86
2022/10/26 11:51:01;;;;;;;8.50;1.90;;;;;;;;;;106892;1302;22129;-87
2022/10/26 11:53:35;;;;;;;9.10;2.90;;;;;;;;;;106905;1285;22681;-86
2022/10/26 11:56:02;;;;;;;6.50;1.80;;;;;;;;;;106760;1301;22173;-87
2022/10/26 11:58:29;;;;;;;11.10;3.20;;;;;;;;;;106870;1307;22340;-86
2022/10/26 12:01:02;;;;;;;9.30;2.80;;;;;;;;;;106729;1307;21965;-88
2022/10/26 12:03:34;;;;;;;8.70;2.70;;;;;;;;;;107130;1287;22057;-85
2022/10/26 12:06:00;;;;;;;10.90;2.30;;;;;;;;;;106718;1307;22053;-86
2022/10/26 12:08:27;;;;;;;26.20;10.30;;;;;;;;;;106935;1305;22096;-86
2022/10/26 12:11:03;;;;;;;20.70;7.50;;;;;;;;;;106925;1299;22077;-87
2022/10/26 12:13:34;;;;;;;28.30;10.10;;;;;;;;;;106951;1307;22078;-86
2022/10/26 12:16:04;;;;;;;12.60;4.90;;;;;;;;;;106910;1302;22141;-88
2022/10/26 12:18:48;;;;;;;10.50;3.20;;;;;;;;;;106744;1306;22107;-87
2022/10/26 12:21:16;;;;;;;20.00;7.20;;;;;;;;;;106748;1306;22058;-88
2022/10/26 12:23:54;;;;;;;11.20;3.40;;;;;;;;;;106731;1306;22116;-88
2022/10/26 12:26:23;;;;;;;9.00;1.90;;;;;;;;;;106884;1306;22125;-88
2022/10/26 12:29:03;;;;;;;8.20;1.90;;;;;;;;;;106950;1295;22092;-86
2022/10/26 12:31:35;;;;;;;12.20;4.00;;;;;;;;;;106937;1306;21877;-87
2022/10/26 12:34:13;;;;;;;5.90;1.90;;;;;;;;;;106872;1307;22069;-86
2022/10/26 12:36:47;;;;;;;8.10;1.90;;;;;;;;;;106774;1295;22552;-88
2022/10/26 12:39:25;;;;;;;5.70;1.40;;;;;;;;;;106712;1306;22104;-87
2022/10/26 12:41:57;;;;;;;6.10;1.60;;;;;;;;;;106929;1306;22202;-88
2022/10/26 12:44:31;;;;;;;7.60;1.80;;;;;;;;;;106750;1306;22068;-87
2022/10/26 12:46:57;;;;;;;6.20;1.50;;;;;;;;;;106811;1307;22100;-86
2022/10/26 12:49:44;;;;;;;7.60;1.60;;;;;;;;;;106844;1307;22037;-86
2022/10/26 12:52:19;;;;;;;6.50;1.60;;;;;;;;;;106753;1307;22089;-87
2022/10/26 12:54:55;;;;;;;7.40;2.00;;;;;;;;;;106650;1307;22081;-85
2022/10/26 12:57:26;;;;;;;5.70;1.50;;;;;;;;;;106786;1306;22907;-86
2022/10/26 12:59:53;;;;;;;6.90;2.00;;;;;;;;;;106768;1306;22131;-86
2022/10/26 13:02:38;;;;;;;5.90;1.60;;;;;;;;;;106894;1306;22754;-87
2022/10/26 13:05:04;;;;;;;10.40;1.90;;;;;;;;;;106775;1306;22679;-86
2022/10/26 13:07:39;;;;;;;11.30;2.30;;;;;;;;;;106889;1306;22123;-86
2022/10/26 13:10:13;;;;;;;8.40;2.10;;;;;;;;;;106756;1302;22880;-87
2022/10/26 13:12:49;;;;;;;11.90;2.70;;;;;;;;;;106910;1307;22167;-88
2022/10/26 13:15:33;;;;;;;14.50;2.00;;;;;;;;;;106800;1307;21950;-87
2022/10/26 13:18:09;;;;;;;8.30;1.60;;;;;;;;;;106889;1297;22171;-87
2022/10/26 13:20:51;;;;;;;6.90;1.60;;;;;;;;;;106822;1306;22110;-87
2022/10/26 13:23:25;;;;;;;11.00;2.70;;;;;;;;;;106698;1307;22162;-87
2022/10/26 13:26:06;;;;;;;5.30;1.50;;;;;;;;;;106639;1307;22058;-86
2022/10/26 13:28:42;;;;;;;6.40;1.70;;;;;;;;;;106611;1307;22134;-88
2022/10/26 13:31:20;;;;;;;5.90;1.80;;;;;;;;;;106719;1307;22510;-85
2022/10/26 13:33:49;;;;;;;5.40;1.60;;;;;;;;;;106681;1307;22142;-87
2022/10/26 13:36:27;;;;;;;9.30;1.90;;;;;;;;;;106657;1307;22090;-87
2022/10/26 13:38:57;;;;;;;7.40;1.60;;;;;;;;;;106788;1307;22079;-86
2022/10/26 13:41:46;;;;;;;9.80;2.00;;;;;;;;;;106725;1307;21973;-88
2022/10/26 13:44:36;;;;;;;6.10;1.80;;;;;;;;;;106924;1307;22654;-86
2022/10/26 13:47:07;;;;;;;6.80;1.60;;;;;;;;;;106905;1307;22214;-85
2022/10/26 13:49:40;;;;;;;5.80;1.60;;;;;;;;;;106628;1307;22801;-85
2022/10/26 13:52:13;;;;;;;8.30;1.90;;;;;;;;;;106820;1307;22723;-86
2022/10/26 13:54:47;;;;;;;74.60;45.90;;;;;;;;;;106935;1307;22057;-86
2022/10/26 13:57:33;;;;;;;12.90;5.20;;;;;;;;;;106694;1307;22139;-86
2022/10/26 14:00:07;;;;;;;7.50;2.60;;;;;;;;;;106918;1307;22054;-85
2022/10/26 14:02:41;;;;;;;9.40;2.20;;;;;;;;;;106914;1307;22022;-81
2022/10/26 14:05:11;;;;;;;7.60;1.90;;;;;;;;;;106684;1307;22650;-84
2022/10/26 14:07:44;;;;;;;8.80;1.80;;;;;;;;;;106778;1307;21971;-86
2022/10/26 14:10:24;;;;;;;7.50;2.30;;;;;;;;;;106681;1307;22602;-85
2022/10/26 14:12:53;;;;;;;14.30;5.20;;;;;;;;;;106709;1307;22114;-85
2022/10/26 14:15:30;;;;;;;9.00;2.60;;;;;;;;;;106727;1307;22498;-86
2022/10/26 14:18:01;;;;;;;7.10;2.20;;;;;;;;;;106614;1309;22138;-86
2022/10/26 14:20:31;;;;;;;8.00;1.90;;;;;;;;;;106627;1295;22075;-86
2022/10/26 14:23:00;;;;;;;8.20;2.10;;;;;;;;;;106598;1306;22008;-86
2022/10/26 14:25:30;;;;;;;8.30;2.20;;;;;;;;;;106722;1307;22077;-86
2022/10/26 14:28:00;;;;;;;7.00;2.00;;;;;;;;;;106845;1307;22709;-86
2022/10/26 14:30:31;;;;;;;6.20;1.80;;;;;;;;;;106732;1303;22094;-87
2022/10/26 14:33:00;;;;;;;6.50;1.80;;;;;;;;;;106699;1307;22082;-86
2022/10/26 14:35:32;;;;;;;10.90;3.50;;;;;;;;;;106660;1307;22124;-87
2022/10/26 14:38:05;;;;;;;9.10;2.60;;;;;;;;;;106724;1307;22097;-86
2022/10/26 14:40:35;;;;;;;8.60;2.60;;;;;;;;;;106624;1308;22041;-87
2022/10/26 14:43:05;;;;;;;10.20;2.80;;;;;;;;;;106646;1307;22111;-86
2022/10/26 14:45:35;;;;;;;9.40;2.50;;;;;;;;;;106626;1302;22686;-86
2022/10/26 14:48:06;;;;;;;8.50;2.20;;;;;;;;;;106600;1307;23180;-86